Résultats de la compétition "Loudéac (22)" du 17-08-2008 organisée par le comité départemental du 22 - Côtes-d'Armor
     
  Télécharger le fichier CSV.  
     
     

 Circuit "Circuit K"

Licence Nom Prénom Temps CN
précédent
Score sur
la course
Différence
4389THIEBAULDGeorges0:44:0034614611+1150
1448KENANEAbdelkader0:50:0138614057+196
16976RICKARDMichael0:50:0328044054+1250
6491ROBERTFrancoise0:52:1134153888+473
1438BOUSQUETMichel0:52:3130583863+805
5167BORRELLIBernadette0:58:0539533493-460
395BLASCONicole0:59:1633453423+78
2446RIFFARDM-Lucie0:59:5031703391+221
3302JEANPIERREM-Therese0:59:5330143388+374
2401DEVILLENelly1:00:3343573351-1006
2557VOGTChristiane1:01:1433873313-74
5033THIEBAULTMonique1:01:2942283300-928
1000LEFOUESTJoseph1:02:3736893240-449
1380DIEUDONNEMadeleine1:02:5542153225-990
15630DIRRINGERM-Claude1:05:0528483117+269
1366LEMAIRERoger1:10:1925322885+353
2124VANNIERVictorine1:14:0525352739+204
1106NATALIAnnie1:16:5927572636-121
16634BAUDOINAnnie1:23:2522442432+188
701ABISSEGisele1:26:5729592333-626
1416CHAVERNACBruno1:28:0221612305+144
934TESTOUDMadeleine1:28:1821512298+147
7910MOUGELDanielle1:29:1423592274-85
1417CHAVERNACChantal1:38:4914582053+595
15894LUDEWIG-JAMESCarol1:39:5017372032+295
14078BLAUDEZJocelyne1:51:1712901823+533
19940PRUNIER-LOUVETMona-Monique1:59:0015921705+113
2487JOLYFrancoise2:09:4716921563-129
14164EJSMONTMartine2:19:3615431453-90
1437BOUSQUETHuguette2:39:5917891268-521
14021QUEYROIYvetteN/A17320-1732
1275ANTOINEJacquelineN/A15190-1519
1001LEFOUESTM-ThereseN/A19060-1906

  Indice de confiance du circuit (moyenne des différences entre CN et score sur la course des 3 à 10 premiers) : 301






 Retour